Time;durP1;ratioP1;P1;durP2;ratioP2;P2;SDS_P1;SDS_P2;PMS_P1;PMS_P2;Temp;Humidity;BMP_temperature;BMP_pressure;BME280_temperature;BME280_humidity;BME280_pressure;Samples;Min_cycle;Max_cycle;Signal;HPM_P1;HPM_P2
2021/07/14 00:01:47;;;;;;;;;47.00;36.75;;;;;16.93;83.11;101031.28;5041207;28;45507;-73
2021/07/14 00:04:15;;;;;;;;;39.00;32.50;;;;;16.88;83.69;101035.91;5039671;28;45411;-72
2021/07/14 00:06:40;;;;;;;;;42.25;34.00;;;;;16.90;83.50;101041.94;5042953;28;45471;-72
2021/07/14 00:09:07;;;;;;;;;48.00;38.75;;;;;16.94;83.54;101043.50;5041351;28;47320;-71
2021/07/14 00:11:38;;;;;;;;;42.25;35.25;;;;;16.93;83.44;101044.41;5056683;28;45276;-71
2021/07/14 00:14:26;;;;;;;;;44.00;35.25;;;;;16.95;83.27;101047.81;5071134;28;45481;-70
2021/07/14 00:22:39;;;;;;;;;45.50;35.50;;;;;16.90;81.81;101045.41;5038645;28;46150;-71
2021/07/14 00:25:06;;;;;;;;;46.50;34.50;;;;;16.89;81.79;101043.72;5015855;28;45837;-71
2021/07/14 00:27:32;;;;;;;;;44.50;37.25;;;;;16.90;81.88;101042.78;5010080;28;45318;-73
2021/07/14 00:29:59;;;;;;;;;40.25;34.25;;;;;16.90;81.95;101040.16;5040456;28;52314;-73
2021/07/14 00:32:26;;;;;;;;;46.25;37.25;;;;;16.91;81.98;101041.88;5010618;28;45894;-70
2021/07/14 00:34:52;;;;;;;;;42.75;34.75;;;;;16.90;81.66;101041.94;5018996;28;45503;-69
2021/07/14 00:37:20;;;;;;;;;38.75;32.25;;;;;16.88;81.80;101038.53;5059329;28;45483;-71
2021/07/14 00:39:47;;;;;;;;;46.75;35.25;;;;;16.88;81.97;101046.41;5024208;28;46762;-72
2021/07/14 00:42:23;;;;;;;;;39.25;35.50;;;;;16.89;81.90;101043.72;5024143;28;45311;-68
2021/07/14 00:44:55;;;;;;;;;46.25;36.00;;;;;16.89;81.79;101041.09;5010863;28;45491;-67
2021/07/14 00:47:28;;;;;;;;;39.00;33.00;;;;;16.89;81.82;101040.25;5059984;28;45769;-67
2021/07/14 00:49:54;;;;;;;;;42.00;33.00;;;;;16.89;81.92;101037.63;5031387;28;45357;-67
2021/07/14 00:52:19;;;;;;;;;37.50;32.25;;;;;16.86;81.60;101038.63;5003117;28;45708;-68
2021/07/14 00:54:45;;;;;;;;;38.00;32.75;;;;;16.87;81.74;101036.84;5036544;28;66787;-68
2021/07/14 00:57:10;;;;;;;;;41.25;34.25;;;;;16.88;81.88;101051.69;5037200;28;66203;-69
2021/07/14 00:59:45;;;;;;;;;39.75;33.00;;;;;16.88;81.78;101052.53;5030635;28;45329;-67
2021/07/14 01:02:11;;;;;;;;;36.75;31.00;;;;;16.88;81.99;101051.69;5035261;28;45641;-68
2021/07/14 01:04:38;;;;;;;;;36.50;29.25;;;;;16.90;82.18;101053.28;5039977;28;45316;-67
2021/07/14 01:07:13;;;;;;;;;38.75;33.25;;;;;16.92;81.94;101053.22;5020448;28;45620;-70
2021/07/14 01:09:42;;;;;;;;;38.50;31.50;;;;;16.93;81.94;101060.16;5024331;28;45534;-70
2021/07/14 01:12:24;;;;;;;;;33.00;31.00;;;;;16.96;81.91;101062.63;5037353;28;45547;-71
2021/07/14 01:14:56;;;;;;;;;37.00;31.50;;;;;16.95;82.11;101063.56;5045112;28;45399;-71
2021/07/14 01:17:22;;;;;;;;;27.75;26.50;;;;;16.95;81.39;101058.31;5020843;28;45263;-71
2021/07/14 01:19:56;;;;;;;;;30.75;29.00;;;;;16.94;82.02;101061.88;5030956;28;71953;-70
2021/07/14 01:22:54;;;;;;;;;40.75;33.50;;;;;16.94;82.16;101059.25;5049061;28;45759;-70
2021/07/14 01:25:45;;;;;;;;;35.50;30.75;;;;;16.93;81.78;101055.75;5037277;28;45267;-69
2021/07/14 01:28:10;;;;;;;;;42.50;32.75;;;;;16.91;82.08;101057.63;5048080;28;45364;-70
2021/07/14 01:30:36;;;;;;;;;33.50;29.00;;;;;16.91;82.09;101051.53;5028440;28;67857;-70
2021/07/14 01:33:01;;;;;;;;;33.50;28.75;;;;;16.91;82.08;101054.16;5033813;28;47123;-70
2021/07/14 01:35:29;;;;;;;;;30.75;28.50;;;;;16.83;82.03;101062.41;5021828;28;54174;-71
2021/07/14 01:37:54;;;;;;;;;36.00;31.75;;;;;16.78;81.83;101055.66;5013044;28;45578;-71
2021/07/14 01:40:21;;;;;;;;;27.00;22.50;;;;;16.74;82.09;101062.81;5035020;28;68333;-71
2021/07/14 01:42:50;;;;;;;;;30.75;26.25;;;;;16.64;81.80;101062.41;5019345;28;45985;-71
2021/07/14 01:45:15;;;;;;;;;27.00;24.00;;;;;16.61;81.65;101059.88;5047177;28;45482;-70
2021/07/14 01:47:41;;;;;;;;;24.00;21.75;;;;;16.60;81.97;101058.19;5028172;28;54535;-72
2021/07/14 01:50:07;;;;;;;;;26.75;25.00;;;;;16.55;81.87;101044.44;5044996;28;64712;-69
2021/07/14 01:52:32;;;;;;;;;24.00;21.75;;;;;16.49;81.80;101046.53;5035432;28;45373;-68
2021/07/14 01:54:58;;;;;;;;;25.25;21.25;;;;;16.42;81.90;101040.72;5046058;28;45422;-67
2021/07/14 01:57:26;;;;;;;;;18.50;17.50;;;;;16.38;81.88;101047.84;5019854;28;45716;-67
2021/07/14 01:59:52;;;;;;;;;18.75;16.00;;;;;16.30;81.97;101036.03;5013161;28;45418;-65
2021/07/14 02:02:18;;;;;;;;;19.00;17.50;;;;;16.28;82.03;101032.63;5033697;28;67211;-66
2021/07/14 02:04:47;;;;;;;;;17.25;14.50;;;;;16.26;81.98;101037.09;5036055;28;45357;-66
2021/07/14 02:07:17;;;;;;;;;18.50;14.00;;;;;16.26;81.81;101029.25;5019785;28;45646;-66
2021/07/14 02:09:44;;;;;;;;;25.25;19.00;;;;;16.25;81.93;101033.63;5007298;28;48489;-65
2021/07/14 02:12:15;;;;;;;;;18.00;15.00;;;;;16.23;81.96;101024.13;5034266;28;45381;-66
2021/07/14 02:15:04;;;;;;;;;18.00;13.75;;;;;16.26;82.04;101027.47;5039912;28;45450;-66
2021/07/14 02:17:33;;;;;;;;;14.25;13.00;;;;;16.27;81.94;101036.19;5049414;28;45296;-66
2021/07/14 02:20:09;;;;;;;;;16.75;16.75;;;;;16.27;81.78;101041.44;5001064;28;46796;-68
2021/07/14 02:22:34;;;;;;;;;15.50;12.25;;;;;16.28;82.04;101038.72;5031541;28;45785;-69
2021/07/14 02:25:00;;;;;;;;;19.25;14.75;;;;;16.29;82.30;101029.94;5019283;28;61763;-69
2021/07/14 02:27:26;;;;;;;;;15.00;11.25;;;;;16.28;82.15;101028.25;5035206;28;45607;-69
2021/07/14 02:29:51;;;;;;;;;18.50;14.50;;;;;16.28;82.09;101032.63;5051305;28;45510;-67
2021/07/14 02:32:18;;;;;;;;;13.50;12.25;;;;;16.31;82.30;101033.34;5050774;28;63181;-68
2021/07/14 02:34:48;;;;;;;;;18.75;13.50;;;;;16.34;82.16;101027.09;5036186;28;45401;-68
2021/07/14 02:37:17;;;;;;;;;13.75;12.50;;;;;16.38;82.28;101026.88;5049104;28;45539;-69
2021/07/14 02:39:46;;;;;;;;;14.75;12.50;;;;;16.38;81.94;101026.03;5035055;28;45464;-68
2021/07/14 02:42:14;;;;;;;;;13.00;12.25;;;;;16.40;82.13;101027.66;5033587;28;45385;-71
2021/07/14 02:44:42;;;;;;;;;12.75;12.25;;;;;16.41;82.12;101031.97;5039921;28;45472;-66
2021/07/14 02:47:07;;;;;;;;;13.75;12.00;;;;;16.39;82.04;101030.34;5027507;28;45434;-66
2021/07/14 02:49:33;;;;;;;;;12.75;10.75;;;;;16.40;81.93;101029.41;5039143;28;46356;-69
2021/07/14 02:51:59;;;;;;;;;17.25;11.25;;;;;16.38;82.19;101031.28;5023886;28;45888;-70
2021/07/14 02:54:27;;;;;;;;;13.50;11.00;;;;;16.41;82.36;101036.38;5021995;28;57656;-70
2021/07/14 02:57:02;;;;;;;;;15.50;11.00;;;;;16.40;82.04;101039.91;5036085;28;45274;-70
2021/07/14 02:59:37;;;;;;;;;12.25;10.00;;;;;16.38;82.10;101036.50;5025798;28;47190;-66
2021/07/14 03:02:05;;;;;;;;;12.00;10.25;;;;;16.37;82.03;101040.91;5032267;28;45281;-67
2021/07/14 03:04:41;;;;;;;;;8.75;8.75;;;;;16.37;82.22;101038.28;5055481;28;45312;-67
2021/07/14 03:07:09;;;;;;;;;13.25;11.50;;;;;16.37;82.18;101037.44;5025219;28;46792;-68
2021/07/14 03:09:40;;;;;;;;;15.00;11.00;;;;;16.35;82.13;101041.91;5060781;28;45448;-67
2021/07/14 03:12:06;;;;;;;;;13.00;9.25;;;;;16.35;82.14;101045.38;5041365;28;45441;-67
2021/07/14 03:14:31;;;;;;;;;9.00;9.00;;;;;16.34;82.40;101043.69;5040463;28;45464;-70
2021/07/14 03:16:57;;;;;;;;;12.25;10.50;;;;;16.35;82.03;101041.91;5015309;28;64046;-64
2021/07/14 03:19:22;;;;;;;;;10.25;9.25;;;;;16.33;81.93;101038.50;5038405;28;45623;-64
2021/07/14 03:21:48;;;;;;;;;13.75;11.00;;;;;16.31;82.06;101043.84;5052638;28;45337;-64
2021/07/14 03:24:14;;;;;;;;;10.00;10.00;;;;;16.32;82.11;101044.69;5045002;28;54880;-65
2021/07/14 03:26:39;;;;;;;;;13.50;10.50;;;;;16.29;82.32;101043.06;5038141;28;45487;-65
2021/07/14 03:29:05;;;;;;;;;9.25;8.75;;;;;16.31;82.04;101050.84;5038640;28;70459;-67
2021/07/14 03:31:30;;;;;;;;;12.00;9.00;;;;;16.30;81.92;101043.91;5033805;28;45543;-67
2021/07/14 03:33:57;;;;;;;;;8.75;8.25;;;;;16.33;82.26;101054.25;5060157;28;48787;-67
2021/07/14 03:36:22;;;;;;;;;12.50;10.75;;;;;16.34;82.22;101054.16;5024657;28;45267;-67
2021/07/14 03:38:48;;;;;;;;;10.50;8.50;;;;;16.35;82.26;101057.66;5042627;28;46367;-65
2021/07/14 03:41:13;;;;;;;;;8.75;8.25;;;;;16.38;82.21;101063.59;5017402;28;60547;-63
2021/07/14 03:43:39;;;;;;;;;10.00;9.00;;;;;16.37;81.90;101069.75;5024852;28;45667;-64
2021/07/14 03:46:05;;;;;;;;;9.00;9.00;;;;;16.34;82.00;101067.28;5058281;28;45153;-64
2021/07/14 03:48:31;;;;;;;;;12.75;9.75;;;;;16.33;82.26;101072.59;5041907;28;46764;-64
2021/07/14 03:50:57;;;;;;;;;10.75;9.25;;;;;16.34;82.08;101071.69;5039796;28;46923;-63
2021/07/14 03:53:23;;;;;;;;;9.25;8.25;;;;;16.33;82.11;101069.97;5043518;28;45508;-65
2021/07/14 03:55:49;;;;;;;;;9.25;9.00;;;;;16.31;82.02;101077.06;5039559;28;45527;-66
2021/07/14 03:58:14;;;;;;;;;9.75;8.00;;;;;16.30;81.89;101073.59;5044379;28;45466;-65
2021/07/14 04:00:39;;;;;;;;;9.50;8.75;;;;;16.30;82.20;101072.75;5041725;28;47178;-65
2021/07/14 04:03:11;;;;;;;;;15.75;9.75;;;;;16.35;82.29;101081.25;5029374;28;56375;-65
2021/07/14 04:05:43;;;;;;;;;7.75;7.25;;;;;16.37;82.12;101082.03;5056948;28;45273;-65
2021/07/14 04:08:13;;;;;;;;;12.00;9.25;;;;;16.39;82.19;101080.19;5061098;28;47248;-65
2021/07/14 04:10:39;;;;;;;;;10.25;9.00;;;;;16.39;82.17;101085.44;5040106;28;45440;-65
2021/07/14 04:13:04;;;;;;;;;10.25;8.75;;;;;16.42;82.21;101085.31;5058917;28;45347;-66
2021/07/14 04:15:30;;;;;;;;;11.00;9.00;;;;;16.40;82.16;101079.25;5060473;28;61049;-66
2021/07/14 04:17:55;;;;;;;;;10.25;8.50;;;;;16.42;82.00;101080.06;5060820;28;45327;-66
2021/07/14 04:20:21;;;;;;;;;11.00;8.25;;;;;16.41;81.96;101078.34;5060736;28;45407;-65
2021/07/14 04:22:46;;;;;;;;;12.00;9.00;;;;;16.40;82.21;101079.25;5060747;28;48001;-66
2021/07/14 04:25:12;;;;;;;;;11.75;11.75;;;;;16.42;82.17;101072.19;5059978;28;56762;-66
2021/07/14 04:27:37;;;;;;;;;10.75;8.00;;;;;16.44;82.33;101080.84;5060727;28;46160;-67
2021/07/14 04:30:03;;;;;;;;;10.75;8.75;;;;;16.45;81.94;101082.53;5060505;28;45297;-67
2021/07/14 04:32:29;;;;;;;;;10.75;9.00;;;;;16.41;81.93;101075.72;5059613;28;45213;-67
2021/07/14 04:34:54;;;;;;;;;12.25;9.75;;;;;16.41;82.13;101079.19;5060482;28;51713;-67
2021/07/14 04:37:19;;;;;;;;;11.75;10.25;;;;;16.44;82.18;101075.59;5030413;28;46393;-66
2021/07/14 04:39:45;;;;;;;;;12.00;11.00;;;;;16.47;82.19;101074.59;5052782;28;63971;-66
2021/07/14 04:42:10;;;;;;;;;12.00;11.00;;;;;16.50;81.90;101083.19;5054004;28;45236;-66
2021/07/14 04:44:37;;;;;;;;;10.25;10.00;;;;;16.49;82.03;101084.09;5054348;28;57151;-67
2021/07/14 04:47:04;;;;;;;;;11.50;9.25;;;;;16.48;81.87;101092.91;5038816;28;45368;-67
2021/07/14 04:49:29;;;;;;;;;11.00;9.00;;;;;16.50;82.09;101092.81;5036939;28;45357;-67
2021/07/14 04:51:55;;;;;;;;;12.75;9.50;;;;;16.49;82.04;101094.59;5060824;28;45432;-66
2021/07/14 04:54:20;;;;;;;;;10.00;8.25;;;;;16.50;82.25;101092.81;5060247;28;45345;-66
2021/07/14 04:56:49;;;;;;;;;12.50;10.25;;;;;16.51;82.17;101094.53;5037977;28;65561;-66
2021/07/14 04:59:15;;;;;;;;;12.75;10.50;;;;;16.53;82.21;101098.78;5043901;28;45336;-66
2021/07/14 05:01:40;;;;;;;;;16.75;11.00;;;;;16.54;82.16;101102.25;5060263;28;45221;-66
2021/07/14 05:04:06;;;;;;;;;17.25;12.50;;;;;16.56;82.22;101114.38;5056215;28;56784;-67
2021/07/14 05:06:31;;;;;;;;;12.00;12.00;;;;;16.59;82.19;101108.97;5058889;28;66555;-67
2021/07/14 05:08:58;;;;;;;;;14.00;11.75;;;;;16.61;81.98;101107.13;5041750;28;45407;-68
2021/07/14 05:11:23;;;;;;;;;12.25;11.00;;;;;16.62;82.21;101116.72;5038347;28;45575;-67
2021/07/14 05:13:48;;;;;;;;;12.75;11.50;;;;;16.63;82.10;101110.56;5032434;28;63259;-67
2021/07/14 05:16:14;;;;;;;;;14.25;10.25;;;;;16.63;81.91;101107.94;5059507;28;61900;-67
2021/07/14 05:18:39;;;;;;;;;18.25;11.75;;;;;16.61;82.19;101107.13;5059488;28;52640;-67
2021/07/14 05:21:05;;;;;;;;;17.75;13.00;;;;;16.60;82.04;101115.91;5060211;28;45344;-68
2021/07/14 05:23:30;;;;;;;;;12.00;11.75;;;;;16.59;82.04;101108.97;5038419;28;45555;-67
2021/07/14 05:25:56;;;;;;;;;14.50;13.50;;;;;16.63;81.83;101120.19;5059511;28;45347;-67
2021/07/14 05:28:21;;;;;;;;;12.75;11.75;;;;;16.66;82.23;101120.94;5004527;28;64216;-67
2021/07/14 05:30:46;;;;;;;;;18.75;15.25;;;;;16.64;81.72;101117.50;5059305;28;56285;-67
2021/07/14 05:33:12;;;;;;;;;17.25;11.75;;;;;16.62;81.95;101115.88;5058916;28;65314;-67
2021/07/14 05:35:37;;;;;;;;;12.25;11.50;;;;;16.66;82.08;101118.31;5059270;28;62476;-67
2021/07/14 05:38:03;;;;;;;;;14.00;14.00;;;;;16.68;81.96;101113.84;5038406;28;45317;-66
2021/07/14 05:40:28;;;;;;;;;17.50;15.50;;;;;16.71;82.13;101115.47;5017315;28;45302;-66
2021/07/14 05:42:54;;;;;;;;;17.00;13.75;;;;;16.75;82.09;101124.03;5052587;28;45253;-66
2021/07/14 05:45:19;;;;;;;;;20.00;15.25;;;;;16.76;82.11;101129.22;5037886;28;57295;-66
2021/07/14 05:47:47;;;;;;;;;17.50;15.00;;;;;16.73;81.77;101119.72;5052488;28;45166;-66
2021/07/14 05:50:13;;;;;;;;;13.75;13.25;;;;;16.75;81.90;101124.03;5022326;28;45401;-66
2021/07/14 05:52:38;;;;;;;;;19.25;15.75;;;;;16.77;82.06;101128.28;5032542;28;51793;-65
2021/07/14 05:55:05;;;;;;;;;21.25;18.25;;;;;16.79;82.12;101131.69;5058497;28;65896;-65
2021/07/14 05:57:30;;;;;;;;;16.00;14.00;;;;;16.81;81.93;101124.59;5057644;28;45766;-66
2021/07/14 05:59:56;;;;;;;;;12.75;12.75;;;;;16.84;81.89;101128.88;5047195;28;45387;-66
2021/07/14 06:02:21;;;;;;;;;12.50;10.25;;;;;16.87;82.10;101129.56;5044459;28;60725;-65
2021/07/14 06:04:46;;;;;;;;;12.00;9.75;;;;;16.87;81.33;101133.97;5054862;28;45732;-65
2021/07/14 06:07:12;;;;;;;;;14.00;11.25;;;;;16.87;82.10;101139.22;5037950;28;45356;-68
2021/07/14 06:09:39;;;;;;;;;10.25;9.25;;;;;16.87;82.01;101132.19;5038916;28;55298;-67
2021/07/14 06:12:05;;;;;;;;;8.50;8.00;;;;;16.85;81.47;101136.69;5056883;28;45505;-67
2021/07/14 06:14:31;;;;;;;;;10.25;10.25;;;;;16.82;81.77;101142.06;5057803;28;46677;-67
2021/07/14 06:16:56;;;;;;;;;11.50;9.75;;;;;16.79;81.71;101134.31;5058986;28;54253;-67
2021/07/14 06:19:21;;;;;;;;;11.50;10.00;;;;;16.81;81.92;101139.50;5058974;28;48159;-67
2021/07/14 06:21:47;;;;;;;;;11.25;8.75;;;;;16.80;81.87;101137.78;5058789;28;50246;-67
2021/07/14 06:24:12;;;;;;;;;7.50;7.00;;;;;16.82;82.06;101142.06;5021043;28;48058;-67
2021/07/14 06:26:38;;;;;;;;;12.00;10.50;;;;;16.81;81.87;101140.34;5051132;28;62900;-66
2021/07/14 06:29:05;;;;;;;;;9.25;9.00;;;;;16.85;81.97;101141.94;5058844;28;45499;-66
2021/07/14 06:31:30;;;;;;;;;12.00;10.00;;;;;16.87;81.92;101145.34;5058856;28;45285;-67
2021/07/14 06:33:55;;;;;;;;;8.50;7.25;;;;;16.87;81.69;101144.47;5058263;28;60604;-67
2021/07/14 06:36:21;;;;;;;;;9.25;7.25;;;;;16.84;81.76;101144.63;5058976;28;45406;-67
2021/07/14 06:38:46;;;;;;;;;12.00;12.00;;;;;16.86;82.02;101154.13;5058231;28;45240;-67
2021/07/14 06:41:14;;;;;;;;;12.00;8.00;;;;;16.94;82.03;101159.84;5050317;28;68031;-67
2021/07/14 06:43:42;;;;;;;;;13.25;10.25;;;;;16.99;81.97;101157.84;5052450;28;45303;-66
2021/07/14 06:46:12;;;;;;;;;13.00;10.50;;;;;17.07;81.94;101156.66;5033081;28;45344;-67
2021/07/14 06:48:38;;;;;;;;;13.75;10.75;;;;;17.09;81.87;101152.19;5038813;28;45396;-68
2021/07/14 06:51:03;;;;;;;;;9.00;9.00;;;;;17.18;81.68;101159.59;5057360;28;45598;-67
2021/07/14 06:53:29;;;;;;;;;9.50;8.00;;;;;17.23;81.95;101153.22;5057486;28;45411;-69
2021/07/14 06:55:54;;;;;;;;;12.00;11.00;;;;;17.30;81.77;101149.38;5059634;28;47794;-68
2021/07/14 06:58:19;;;;;;;;;14.00;10.75;;;;;17.43;82.00;101154.03;5045672;28;45308;-67
2021/07/14 07:00:45;;;;;;;;;9.75;8.50;;;;;17.47;81.90;101152.94;5059985;28;60751;-67
2021/07/14 07:03:10;;;;;;;;;8.50;8.00;;;;;17.55;81.97;101143.75;5059527;28;64696;-66
2021/07/14 07:05:36;;;;;;;;;11.50;10.25;;;;;17.57;81.07;101147.16;5059899;28;54678;-66
2021/07/14 07:08:01;;;;;;;;;12.25;11.50;;;;;17.60;81.79;101143.50;5049418;28;52866;-66
2021/07/14 07:10:27;;;;;;;;;11.25;10.25;;;;;17.62;81.36;101141.69;5059119;28;45494;-67
2021/07/14 07:12:53;;;;;;;;;10.00;10.00;;;;;17.62;81.59;101147.78;5060373;28;45371;-67
2021/07/14 07:15:24;;;;;;;;;8.50;7.00;;;;;17.67;81.43;101154.59;5060730;28;45435;-67
2021/07/14 07:17:49;;;;;;;;;10.25;9.50;;;;;17.70;81.19;101162.34;5040550;28;45324;-67
2021/07/14 07:20:15;;;;;;;;;11.25;10.75;;;;;17.70;80.96;101164.97;5018306;28;45376;-65
2021/07/14 07:22:42;;;;;;;;;11.25;10.00;;;;;17.76;81.77;101167.28;5061665;28;45175;-66
2021/07/14 07:25:08;;;;;;;;;8.00;8.00;;;;;17.80;81.49;101163.56;5040127;28;45488;-66
2021/07/14 07:27:36;;;;;;;;;14.50;10.00;;;;;17.86;81.54;101161.50;5048597;28;45329;-66
2021/07/14 07:30:04;;;;;;;;;11.00;11.00;;;;;17.94;81.21;101163.72;5043231;28;45380;-65
2021/07/14 07:32:29;;;;;;;;;7.50;7.50;;;;;17.99;81.38;101156.44;5054554;28;45442;-66
2021/07/14 07:34:55;;;;;;;;;14.75;13.00;;;;;18.07;80.41;101167.44;5022476;28;57268;-68
2021/07/14 07:37:20;;;;;;;;;13.00;12.00;;;;;18.15;80.98;101164.38;5048354;28;45958;-65
2021/07/14 07:39:46;;;;;;;;;10.25;10.25;;;;;18.29;81.75;101167.16;5050240;28;60373;-67
2021/07/14 07:42:11;;;;;;;;;11.00;9.00;;;;;18.39;81.40;101165.72;5017643;28;47576;-68
2021/07/14 07:44:38;;;;;;;;;11.50;11.25;;;;;18.58;81.58;101172.63;5034236;28;49972;-66
2021/07/14 07:47:03;;;;;;;;;12.25;11.00;;;;;18.65;80.96;101171.44;5032346;28;45796;-67
2021/07/14 07:49:30;;;;;;;;;12.50;9.50;;;;;18.72;81.61;101164.88;5048962;28;45502;-66
2021/07/14 07:51:55;;;;;;;;;9.50;9.25;;;;;18.87;81.19;101150.88;5048369;28;62554;-66
2021/07/14 07:54:21;;;;;;;;;12.50;10.75;;;;;18.91;79.89;101160.31;5052991;28;63395;-67
2021/07/14 07:56:46;;;;;;;;;10.00;8.00;;;;;18.98;80.45;101173.97;5038874;28;60330;-66
2021/07/14 07:59:11;;;;;;;;;16.00;13.50;;;;;19.06;79.98;101167.38;5052476;28;45280;-67
2021/07/14 08:01:37;;;;;;;;;12.75;9.75;;;;;19.11;80.14;101177.63;5049999;28;62834;-68
2021/07/14 08:04:03;;;;;;;;;8.50;7.50;;;;;19.20;79.74;101178.88;5024399;28;46531;-67
2021/07/14 08:06:28;;;;;;;;;8.50;7.75;;;;;19.20;80.09;101186.78;5040383;28;45399;-65
2021/07/14 08:08:54;;;;;;;;;11.00;9.50;;;;;19.11;80.72;101188.16;5051251;28;45263;-66
2021/07/14 08:11:19;;;;;;;;;11.00;8.75;;;;;19.10;80.80;101178.56;5038863;28;46369;-71
2021/07/14 08:13:44;;;;;;;;;10.25;8.25;;;;;19.17;80.65;101182.56;5035646;28;45422;-69
2021/07/14 08:16:10;;;;;;;;;13.25;8.75;;;;;19.20;80.34;101178.88;5060360;28;50627;-68
2021/07/14 08:18:35;;;;;;;;;10.25;8.75;;;;;19.14;80.83;101185.38;5060825;28;45553;-69
2021/07/14 08:21:01;;;;;;;;;10.00;9.50;;;;;19.04;79.21;101186.81;5060994;28;45750;-68
2021/07/14 08:23:27;;;;;;;;;6.50;6.50;;;;;18.87;79.70;101189.53;5058283;28;45498;-67
2021/07/14 08:25:53;;;;;;;;;6.75;6.75;;;;;18.70;80.14;101201.84;5053792;28;45487;-66
2021/07/14 08:28:19;;;;;;;;;7.00;6.25;;;;;18.60;80.38;101197.09;5055222;28;45549;-64
2021/07/14 08:30:44;;;;;;;;;9.00;8.00;;;;;18.57;81.19;101197.25;5053944;28;45506;-64
2021/07/14 08:33:10;;;;;;;;;6.00;6.00;;;;;18.51;80.34;101204.56;5059777;28;61682;-63
2021/07/14 08:35:36;;;;;;;;;5.50;5.50;;;;;18.45;79.57;101204.03;5048706;28;45574;-64
2021/07/14 08:38:01;;;;;;;;;10.00;7.75;;;;;18.42;80.84;101199.81;5041125;28;45394;-64
2021/07/14 08:40:26;;;;;;;;;8.50;8.50;;;;;18.44;80.44;101203.19;5050364;28;46060;-64
2021/07/14 08:42:56;;;;;;;;;8.75;8.25;;;;;18.47;80.80;101207.44;5053437;28;53588;-64
2021/07/14 08:45:22;;;;;;;;;10.25;8.00;;;;;18.45;80.87;101204.91;5042923;28;45475;-66
2021/07/14 08:47:47;;;;;;;;;7.00;6.75;;;;;18.46;80.56;101206.59;5058478;28;45331;-67
2021/07/14 08:50:13;;;;;;;;;13.75;9.50;;;;;18.45;80.83;101204.91;5022416;28;45793;-66
2021/07/14 08:52:42;;;;;;;;;10.00;8.25;;;;;18.48;80.95;101220.53;5036184;28;45416;-65
2021/07/14 08:55:09;;;;;;;;;7.00;6.50;;;;;18.47;81.11;101220.59;5060354;28;45349;-64
2021/07/14 08:57:34;;;;;;;;;7.00;7.00;;;;;18.39;80.83;101215.72;5040930;28;45267;-66
2021/07/14 09:00:00;;;;;;;;;8.25;7.50;;;;;18.36;80.66;101205.38;5046300;28;67800;-69
2021/07/14 09:02:25;;;;;;;;;10.25;7.25;;;;;18.35;79.63;101221.22;5042491;28;57919;-67
2021/07/14 09:04:50;;;;;;;;;5.50;5.50;;;;;18.32;79.43;101210.88;5045523;28;57410;-64
2021/07/14 09:07:16;;;;;;;;;7.25;7.25;;;;;18.28;80.32;101215.44;5060295;28;45216;-67
2021/07/14 09:09:42;;;;;;;;;6.25;6.00;;;;;18.22;80.52;101213.16;5059643;28;45328;-69
2021/07/14 09:12:09;;;;;;;;;7.00;6.00;;;;;18.20;80.92;101221.09;5056756;28;45532;-71
2021/07/14 09:14:36;;;;;;;;;8.00;7.00;;;;;18.21;80.31;101216.69;5064780;28;45398;-72
2021/07/14 09:17:25;;;;;;;;;8.00;6.75;;;;;18.20;80.47;101214.97;5064092;28;45566;-82
2021/07/14 09:20:10;;;;;;;;;8.50;8.50;;;;;18.19;80.88;101214.13;5060588;28;46175;-76
2021/07/14 09:22:35;;;;;;;;;6.75;6.25;;;;;18.19;81.32;101223.81;5058636;28;45567;-74
2021/07/14 09:25:07;;;;;;;;;7.25;7.25;;;;;18.16;79.18;101210.81;5059275;28;55358;-65
2021/07/14 09:27:36;;;;;;;;;7.00;7.00;;;;;18.20;81.21;101209.72;5059950;28;45545;-69
2021/07/14 09:30:18;;;;;;;;;9.00;8.00;;;;;18.40;80.86;101209.53;5059513;28;46088;-68
2021/07/14 09:32:52;;;;;;;;;6.50;6.50;;;;;18.55;80.98;101200.81;5059549;28;45582;-66
2021/07/14 09:35:33;;;;;;;;;8.25;6.50;;;;;18.75;81.10;101217.38;5059859;28;45300;-69
2021/07/14 09:38:05;;;;;;;;;6.75;6.25;;;;;18.84;80.35;101214.25;5039425;28;45602;-66
2021/07/14 09:40:30;;;;;;;;;7.50;6.25;;;;;18.94;80.30;101217.22;5050130;28;46653;-69
2021/07/14 09:43:01;;;;;;;;;10.00;6.75;;;;;19.04;80.25;101221.91;5040800;28;45248;-66
2021/07/14 09:45:45;;;;;;;;;6.00;5.50;;;;;19.07;78.80;101218.25;5059979;28;45257;-67
2021/07/14 09:48:12;;;;;;;;;6.00;4.00;;;;;19.07;79.87;101218.25;5059235;28;45618;-68
2021/07/14 09:50:40;;;;;;;;;7.50;7.50;;;;;19.13;79.94;101221.41;5058464;28;46807;-68
2021/07/14 09:53:07;;;;;;;;;6.50;6.00;;;;;19.09;78.93;101233.03;5059526;28;45288;-78
2021/07/14 09:55:33;;;;;;;;;6.00;6.00;;;;;19.07;79.61;101240.19;5038078;28;45364;-69
2021/07/14 09:58:11;;;;;;;;;6.75;6.75;;;;;19.08;79.95;101235.78;5057908;28;45331;-67
2021/07/14 10:00:44;;;;;;;;;6.50;6.50;;;;;19.11;80.04;101235.59;5038783;28;45665;-69
2021/07/14 10:03:09;;;;;;;;;6.75;6.75;;;;;19.06;80.12;101232.38;5059156;28;45538;-68
2021/07/14 10:05:35;;;;;;;;;6.25;6.00;;;;;19.08;80.49;101231.34;5056542;28;45363;-70
2021/07/14 10:08:21;;;;;;;;;9.00;7.25;;;;;19.09;79.18;101238.31;5059333;28;45346;-70
2021/07/14 10:10:48;;;;;;;;;9.00;7.50;;;;;19.09;79.74;101232.19;5055473;28;46400;-73
2021/07/14 10:13:14;;;;;;;;;8.00;8.00;;;;;19.17;80.20;101240.53;5058437;28;45644;-71
2021/07/14 10:15:40;;;;;;;;;7.00;6.75;;;;;19.17;79.59;101234.41;5040793;28;53033;-67
2021/07/14 10:18:09;;;;;;;;;12.00;10.00;;;;;19.22;79.89;101233.22;5059456;28;45417;-70
2021/07/14 10:20:35;;;;;;;;;6.25;5.50;;;;;19.27;79.17;101240.88;5059009;28;45646;-68
2021/07/14 10:23:04;;;;;;;;;5.25;4.50;;;;;19.25;79.72;101240.13;5032577;28;45505;-71
2021/07/14 10:25:30;;;;;;;;;9.50;9.00;;;;;19.27;79.61;101240.88;5042898;28;45357;-65
2021/07/14 10:27:56;;;;;;;;;8.00;8.00;;;;;19.36;79.71;101241.19;5038038;28;45401;-70
2021/07/14 10:30:22;;;;;;;;;6.00;6.00;;;;;19.42;78.79;101240.88;5041250;28;45364;-71
2021/07/14 10:32:47;;;;;;;;;7.00;7.00;;;;;19.48;78.94;101238.81;5024459;28;45392;-68
2021/07/14 10:35:16;;;;;;;;;6.00;6.00;;;;;19.53;79.22;101248.16;5024197;28;45554;-68
2021/07/14 10:37:46;;;;;;;;;10.00;6.25;;;;;19.61;78.92;101248.59;5027983;28;45611;-66
2021/07/14 10:40:11;;;;;;;;;11.00;6.75;;;;;19.80;79.57;101237.84;5029873;28;46018;-68
2021/07/14 10:42:37;;;;;;;;;11.50;10.00;;;;;20.01;79.66;101243.66;5028813;28;45693;-67
2021/07/14 10:45:03;;;;;;;;;9.75;8.25;;;;;20.19;79.91;101253.13;5034436;28;45633;-69
2021/07/14 10:47:29;;;;;;;;;8.00;7.00;;;;;20.41;79.55;101262.44;5055049;28;45476;-67
2021/07/14 10:49:55;;;;;;;;;9.50;7.00;;;;;20.52;78.55;101244.16;5040478;28;46502;-66
2021/07/14 10:52:20;;;;;;;;;8.00;8.00;;;;;20.73;78.99;101250.75;5036161;28;45384;-62
2021/07/14 10:54:45;;;;;;;;;6.75;6.75;;;;;20.94;78.75;101243.28;5024306;28;56727;-63
2021/07/14 10:57:11;;;;;;;;;8.50;7.50;;;;;21.13;79.07;101246.47;5049650;28;65257;-63
2021/07/14 10:59:36;;;;;;;;;7.00;7.00;;;;;21.29;78.56;101250.81;5022843;28;46161;-63
2021/07/14 11:02:02;;;;;;;;;7.25;6.00;;;;;21.33;78.56;101253.16;5037859;28;53704;-63
2021/07/14 11:04:27;;;;;;;;;6.50;6.50;;;;;21.35;76.85;101253.91;5049440;28;45238;-62
2021/07/14 11:06:54;;;;;;;;;5.00;4.00;;;;;21.37;77.52;101264.38;5052242;28;45501;-63
2021/07/14 11:09:35;;;;;;;;;8.00;7.00;;;;;21.59;78.37;101253.25;5050018;28;45637;-63
2021/07/14 11:12:04;;;;;;;;;8.00;8.00;;;;;21.81;78.15;101249.09;5032380;28;45677;-63
2021/07/14 11:14:39;;;;;;;;;9.25;9.25;;;;;22.16;78.63;101260.00;5052061;28;45417;-63
2021/07/14 11:17:09;;;;;;;;;6.75;6.25;;;;;22.36;78.22;101247.22;5049882;28;45419;-62
2021/07/14 11:19:48;;;;;;;;;8.75;6.75;;;;;22.64;77.94;101249.66;5047262;28;45659;-65
2021/07/14 11:22:14;;;;;;;;;10.00;7.75;;;;;22.70;77.81;101251.88;5046801;28;45455;-72
2021/07/14 11:24:41;;;;;;;;;9.50;8.00;;;;;22.59;78.17;101246.47;5032255;28;45479;-66